Bierset, Belgique

17:33 CEST le 27 mai 2015 (GMT +0200)
Maastricht-Aachen | | Change Station
CLOSE
Current Station
Aéroport
Location: Maastricht,
Altitude: 374 ft
Stations météo à proximité

Alt. 374 ft 50.91 °N, 5.76 °E | Updated 8 minutes ago

Clear
Ciel dégagé
64 ° F
Paraît 64 ° F
N
7
Vent Variable Vent de SSO

Aujourd'hui
Haut(e) -- | Bas -- ° F
--% Risque de précip.
Hier
Haut(e) -- | Bas -- ° F
Precip. -- pouce
5:35 AM 9:35 PM
Lune gibbeuse croissante, 68% visible
Pression 30.15 pouce
Visibilité 6.2 Miles terrestres
Nuages
Point de rosée 43 ° F
Humidité 45%
Précipitations 0.00 pouce
Profondeur de la couche neigeuse Non disponible.
UV Non disponible.
Pollen Non disponible.
Qualité de l'air Non disponible.
Flu Activity Non disponible.
METAR EHBK 271525Z AUTO 20006KT 150V240 9999 NSC 18/06 Q1021 NOSIG

More Conditions Fewer Conditions

Pression 30.15 pouce
Visibilité 6.2 Miles terrestres
Nuages
Point de rosée 43 ° F
Humidité 45%
Précipitations 0.00 pouce
Profondeur de la couche neigeuse Non disponible.
UV Non disponible.
Pollen Non disponible.
Qualité de l'air Non disponible.
Flu Activity Non disponible.
METAR EHBK 271525Z AUTO 20006KT 150V240 9999 NSC 18/06 Q1021 NOSIG

More Conditions Fewer Conditions

10-Day Weather Forecast

Almanac

Astronomie

May. 27, 2015 Lever Coucher
Temps réel
Crépuscule civil
Crépuscule nautique
Crépuscule astronomique
Lune
Durée de lumière visible
Longueur du jour
Tomorrow will be .
, % of the Moon is Illuminated

Extrêmes aujourd'hui

Country Highs Country Lows

Community

WunderPhotos

Upload Photos

1,824,699 Photos téléchargées !

WunderBlogs® & News

Nearby

Qualité de l'air

  Qualité de l'air Indice de la qualité de l'air Polluant
Not available.

Épaisseur de neige

Station Depth Altitude

Activité sismique

Ville Distance Mag. Time & Date
Minimum magnitude displayed is 2.5.

Températures des eaux côtières

Lieu Température

Stations

Stations météo à proximité

Emplacement de la station Température Refroidissement éolien Point de rosée Humidité Vent Precip. Alt. Mise à jour Type